BAW9705 LOWW-LKPR
Flight info
| Callsign | BAW9705 |
|---|---|
| Flight time | 0h 38m |
| Altitude | 22000 |
| Route | LANUX4A/11 LANUX DCT VLM |
| Aircraft | A320/M-SDE3FGHIRWY/LB1 |
Departure
| Time | 2026-05-04 19:26 |
|---|---|
| Airport | Vienna International Airport (LOWW) |
Arrival
| Time | 2026-05-04 20:04 |
|---|---|
| Airport | Václav Havel Airport Prague (LKPR) |
| Time | Latitude | Longitude | Altitude | Speed | Heading |
|---|---|---|---|---|---|
| 2026-05-04 19:01 | 48.12135 | 16.55347 | 618 ft | 0 kts | 295° |
| 2026-05-04 19:21 | 48.12136 | 16.55344 | 609 ft | 1 kts | 295° |
| 2026-05-04 19:21 | 48.12143 | 16.55318 | 617 ft | 4 kts | 289° |
| 2026-05-04 19:22 | 48.12127 | 16.55271 | 613 ft | 8 kts | 219° |
| 2026-05-04 19:22 | 48.12054 | 16.55215 | 609 ft | 15 kts | 205° |
| 2026-05-04 19:22 | 48.11945 | 16.55188 | 615 ft | 17 kts | 180° |
| 2026-05-04 19:22 | 48.11923 | 16.55081 | 615 ft | 14 kts | 294° |
| 2026-05-04 19:23 | 48.11978 | 16.54914 | 613 ft | 22 kts | 296° |
| 2026-05-04 19:23 | 48.12053 | 16.54684 | 616 ft | 26 kts | 296° |
| 2026-05-04 19:23 | 48.12136 | 16.54428 | 614 ft | 28 kts | 296° |
| 2026-05-04 19:23 | 48.12221 | 16.54171 | 610 ft | 28 kts | 296° |
| 2026-05-04 19:24 | 48.12308 | 16.53903 | 616 ft | 30 kts | 296° |
| 2026-05-04 19:24 | 48.12392 | 16.53646 | 611 ft | 27 kts | 296° |
| 2026-05-04 19:24 | 48.12402 | 16.53446 | 609 ft | 19 kts | 223° |
| 2026-05-04 19:24 | 48.12287 | 16.53370 | 615 ft | 13 kts | 176° |
| 2026-05-04 19:25 | 48.12226 | 16.53506 | 614 ft | 31 kts | 115° |
| 2026-05-04 19:25 | 48.12029 | 16.54115 | 619 ft | 96 kts | 116° |
| 2026-05-04 19:25 | 48.11656 | 16.55256 | 621 ft | 146 kts | 116° |
| 2026-05-04 19:25 | 48.11205 | 16.56634 | 1130 ft | 144 kts | 119° |
| 2026-05-04 19:26 | 48.10774 | 16.57989 | 1699 ft | 144 kts | 123° |
| 2026-05-04 19:26 | 48.10318 | 16.59386 | 2085 ft | 159 kts | 125° |
| 2026-05-04 19:26 | 48.09844 | 16.61017 | 2344 ft | 187 kts | 110° |
| 2026-05-04 19:26 | 48.09858 | 16.63133 | 2648 ft | 224 kts | 82° |
| 2026-05-04 19:27 | 48.10547 | 16.65300 | 3274 ft | 239 kts | 65° |
| 2026-05-04 19:27 | 48.11437 | 16.67570 | 3560 ft | 267 kts | 63° |
| 2026-05-04 19:27 | 48.12414 | 16.70055 | 4150 ft | 282 kts | 63° |
| 2026-05-04 19:27 | 48.13410 | 16.72625 | 5008 ft | 289 kts | 62° |
| 2026-05-04 19:28 | 48.14425 | 16.75250 | 5709 ft | 293 kts | 61° |
| 2026-05-04 19:28 | 48.15641 | 16.77663 | 6080 ft | 293 kts | 40° |
| 2026-05-04 19:28 | 48.17411 | 16.79111 | 6972 ft | 293 kts | 16° |
| 2026-05-04 19:28 | 48.19424 | 16.79430 | 7812 ft | 293 kts | 352° |
| 2026-05-04 19:29 | 48.21401 | 16.78810 | 8593 ft | 297 kts | 345° |
| 2026-05-04 19:29 | 48.23426 | 16.78091 | 9396 ft | 301 kts | 345° |
| 2026-05-04 19:29 | 48.25475 | 16.77360 | 10184 ft | 305 kts | 345° |
| 2026-05-04 19:29 | 48.27641 | 16.76592 | 10487 ft | 328 kts | 345° |
| 2026-05-04 19:30 | 48.29901 | 16.75790 | 10759 ft | 346 kts | 345° |
| 2026-05-04 19:30 | 48.32273 | 16.74956 | 11377 ft | 353 kts | 345° |
| 2026-05-04 19:30 | 48.34629 | 16.73894 | 12063 ft | 355 kts | 335° |
| 2026-05-04 19:30 | 48.36853 | 16.72262 | 12758 ft | 357 kts | 330° |
| 2026-05-04 19:31 | 48.39071 | 16.70529 | 13468 ft | 361 kts | 330° |
| 2026-05-04 19:31 | 48.41269 | 16.68688 | 14117 ft | 363 kts | 323° |
| 2026-05-04 19:31 | 48.43229 | 16.66238 | 14733 ft | 362 kts | 311° |
| 2026-05-04 19:31 | 48.44743 | 16.63273 | 15335 ft | 362 kts | 301° |
| 2026-05-04 19:32 | 48.46159 | 16.60062 | 15957 ft | 365 kts | 301° |
| 2026-05-04 19:32 | 48.47557 | 16.56914 | 16569 ft | 368 kts | 301° |
| 2026-05-04 19:32 | 48.48986 | 16.53702 | 17190 ft | 370 kts | 301° |
| 2026-05-04 19:32 | 48.50424 | 16.50460 | 17811 ft | 373 kts | 301° |
| 2026-05-04 19:33 | 48.51868 | 16.47187 | 18418 ft | 376 kts | 301° |
| 2026-05-04 19:33 | 48.53317 | 16.43884 | 18978 ft | 379 kts | 301° |
| 2026-05-04 19:33 | 48.54771 | 16.40554 | 19557 ft | 381 kts | 301° |
| 2026-05-04 19:33 | 48.56233 | 16.37200 | 20140 ft | 384 kts | 301° |
| 2026-05-04 19:34 | 48.57707 | 16.33813 | 20709 ft | 387 kts | 301° |
| 2026-05-04 19:34 | 48.59199 | 16.30387 | 21267 ft | 389 kts | 302° |
| 2026-05-04 19:34 | 48.60684 | 16.26979 | 21765 ft | 393 kts | 302° |
| 2026-05-04 19:34 | 48.62185 | 16.23529 | 21906 ft | 393 kts | 302° |
| 2026-05-04 19:35 | 48.63686 | 16.20081 | 21930 ft | 393 kts | 302° |
| 2026-05-04 19:35 | 48.65185 | 16.16633 | 21935 ft | 392 kts | 302° |
| 2026-05-04 19:35 | 48.66682 | 16.13185 | 21935 ft | 392 kts | 302° |
| 2026-05-04 19:35 | 48.68176 | 16.09730 | 21933 ft | 392 kts | 302° |
| 2026-05-04 19:36 | 48.69668 | 16.06275 | 21929 ft | 392 kts | 302° |
| 2026-05-04 19:36 | 48.71159 | 16.02821 | 21926 ft | 392 kts | 302° |
| 2026-05-04 19:36 | 48.72651 | 15.99361 | 21925 ft | 392 kts | 302° |
| 2026-05-04 19:36 | 48.74141 | 15.95902 | 21926 ft | 392 kts | 302° |
| 2026-05-04 19:37 | 48.75668 | 15.92483 | 21927 ft | 393 kts | 308° |
| 2026-05-04 19:37 | 48.76956 | 15.90472 | 21930 ft | 394 kts | 319° |
| 2026-05-04 19:37 | 48.79128 | 15.87924 | 21938 ft | 395 kts | 321° |
| 2026-05-04 19:37 | 48.81319 | 15.85406 | 21938 ft | 395 kts | 321° |
| 2026-05-04 19:38 | 48.83516 | 15.82905 | 21942 ft | 395 kts | 321° |
| 2026-05-04 19:38 | 48.85718 | 15.80410 | 21941 ft | 395 kts | 321° |
| 2026-05-04 19:38 | 48.87915 | 15.77902 | 21940 ft | 395 kts | 321° |
| 2026-05-04 19:38 | 48.90080 | 15.75416 | 21943 ft | 395 kts | 321° |
| 2026-05-04 19:39 | 48.92271 | 15.72889 | 21947 ft | 395 kts | 321° |
| 2026-05-04 19:39 | 48.94458 | 15.70357 | 21946 ft | 395 kts | 320° |
| 2026-05-04 19:39 | 48.96645 | 15.67824 | 21945 ft | 395 kts | 321° |
| 2026-05-04 19:39 | 48.98833 | 15.65294 | 21944 ft | 395 kts | 321° |
| 2026-05-04 19:40 | 49.01050 | 15.62728 | 21946 ft | 395 kts | 321° |
| 2026-05-04 19:40 | 49.03210 | 15.60227 | 21946 ft | 395 kts | 320° |
| 2026-05-04 19:40 | 49.05397 | 15.57691 | 21954 ft | 395 kts | 320° |
| 2026-05-04 19:40 | 49.07582 | 15.55152 | 21952 ft | 395 kts | 320° |
| 2026-05-04 19:41 | 49.09795 | 15.52574 | 21946 ft | 395 kts | 320° |
| 2026-05-04 19:41 | 49.11946 | 15.50065 | 21948 ft | 395 kts | 320° |
| 2026-05-04 19:41 | 49.14162 | 15.47483 | 21948 ft | 395 kts | 320° |
| 2026-05-04 19:41 | 49.16316 | 15.44975 | 21955 ft | 395 kts | 320° |
| 2026-05-04 19:42 | 49.18499 | 15.42426 | 21953 ft | 395 kts | 320° |
| 2026-05-04 19:42 | 49.20678 | 15.39877 | 21957 ft | 395 kts | 320° |
| 2026-05-04 19:42 | 49.22858 | 15.37324 | 21954 ft | 395 kts | 320° |
| 2026-05-04 19:42 | 49.25037 | 15.34768 | 21953 ft | 395 kts | 320° |
| 2026-05-04 19:43 | 49.27216 | 15.32211 | 21951 ft | 395 kts | 320° |
| 2026-05-04 19:43 | 49.29394 | 15.29653 | 21950 ft | 395 kts | 320° |
| 2026-05-04 19:43 | 49.31571 | 15.27095 | 21957 ft | 394 kts | 320° |
| 2026-05-04 19:43 | 49.33747 | 15.24533 | 21956 ft | 394 kts | 320° |
| 2026-05-04 19:44 | 49.35922 | 15.21969 | 21954 ft | 394 kts | 320° |
| 2026-05-04 19:44 | 49.38097 | 15.19406 | 21953 ft | 394 kts | 320° |
| 2026-05-04 19:44 | 49.40271 | 15.16839 | 21953 ft | 394 kts | 320° |
| 2026-05-04 19:44 | 49.42444 | 15.14266 | 21958 ft | 394 kts | 320° |
| 2026-05-04 19:45 | 49.44614 | 15.11695 | 21954 ft | 394 kts | 320° |
| 2026-05-04 19:45 | 49.46787 | 15.09119 | 21953 ft | 394 kts | 320° |
| 2026-05-04 19:45 | 49.48956 | 15.06545 | 21952 ft | 394 kts | 320° |
| 2026-05-04 19:45 | 49.51126 | 15.03967 | 21951 ft | 394 kts | 320° |
| 2026-05-04 19:46 | 49.53293 | 15.01387 | 21953 ft | 394 kts | 319° |
| 2026-05-04 19:46 | 49.55460 | 14.98801 | 21952 ft | 394 kts | 319° |
| 2026-05-04 19:46 | 49.57624 | 14.96213 | 21960 ft | 394 kts | 320° |
| 2026-05-04 19:46 | 49.59788 | 14.93631 | 21917 ft | 392 kts | 320° |
| 2026-05-04 19:47 | 49.61944 | 14.91057 | 21414 ft | 391 kts | 320° |
| 2026-05-04 19:47 | 49.64084 | 14.88503 | 20950 ft | 388 kts | 320° |
| 2026-05-04 19:47 | 49.66210 | 14.85963 | 20469 ft | 385 kts | 320° |
| 2026-05-04 19:47 | 49.68321 | 14.83436 | 19983 ft | 383 kts | 320° |
| 2026-05-04 19:48 | 49.70424 | 14.80913 | 19497 ft | 381 kts | 319° |
| 2026-05-04 19:48 | 49.72512 | 14.78404 | 19001 ft | 379 kts | 319° |
| 2026-05-04 19:48 | 49.74589 | 14.75903 | 18514 ft | 377 kts | 319° |
| 2026-05-04 19:48 | 49.76652 | 14.73413 | 17996 ft | 375 kts | 319° |
| 2026-05-04 19:49 | 49.78702 | 14.70939 | 17489 ft | 372 kts | 319° |
| 2026-05-04 19:49 | 49.80729 | 14.68490 | 17006 ft | 368 kts | 319° |
| 2026-05-04 19:49 | 49.82733 | 14.66065 | 16526 ft | 364 kts | 319° |
| 2026-05-04 19:49 | 49.84718 | 14.63661 | 16060 ft | 360 kts | 319° |
| 2026-05-04 19:50 | 49.86687 | 14.61276 | 15579 ft | 358 kts | 318° |
| 2026-05-04 19:50 | 49.88644 | 14.58906 | 15108 ft | 356 kts | 318° |
| 2026-05-04 19:50 | 49.90587 | 14.56548 | 14638 ft | 354 kts | 318° |
| 2026-05-04 19:50 | 49.92520 | 14.54198 | 14170 ft | 352 kts | 318° |
| 2026-05-04 19:51 | 49.94440 | 14.51862 | 13692 ft | 350 kts | 317° |
| 2026-05-04 19:51 | 49.96352 | 14.49531 | 13197 ft | 348 kts | 318° |
| 2026-05-04 19:51 | 49.98221 | 14.47253 | 12747 ft | 345 kts | 318° |
| 2026-05-04 19:51 | 50.00122 | 14.44934 | 12286 ft | 341 kts | 318° |
| 2026-05-04 19:52 | 50.01982 | 14.42666 | 11837 ft | 338 kts | 318° |
| 2026-05-04 19:52 | 50.03826 | 14.40413 | 11411 ft | 336 kts | 318° |
| 2026-05-04 19:52 | 50.05653 | 14.38174 | 10971 ft | 333 kts | 318° |
| 2026-05-04 19:52 | 50.07438 | 14.35978 | 10543 ft | 330 kts | 319° |
| 2026-05-04 19:53 | 50.09233 | 14.33771 | 10200 ft | 325 kts | 319° |
| 2026-05-04 19:53 | 50.10978 | 14.31636 | 10079 ft | 313 kts | 319° |
| 2026-05-04 19:53 | 50.12659 | 14.29581 | 9968 ft | 302 kts | 319° |
| 2026-05-04 19:53 | 50.14278 | 14.27595 | 9817 ft | 291 kts | 319° |
| 2026-05-04 19:54 | 50.15852 | 14.25660 | 9195 ft | 287 kts | 319° |
| 2026-05-04 19:54 | 50.17414 | 14.23729 | 8512 ft | 286 kts | 319° |
| 2026-05-04 19:54 | 50.18971 | 14.21807 | 7873 ft | 286 kts | 320° |
| 2026-05-04 19:54 | 50.20534 | 14.19876 | 7520 ft | 285 kts | 320° |
| 2026-05-04 19:55 | 50.22078 | 14.17969 | 7269 ft | 281 kts | 320° |
| 2026-05-04 19:55 | 50.23597 | 14.16086 | 7026 ft | 276 kts | 320° |
| 2026-05-04 19:55 | 50.25074 | 14.14260 | 6934 ft | 265 kts | 321° |
| 2026-05-04 19:55 | 50.26485 | 14.12516 | 6846 ft | 256 kts | 321° |
| 2026-05-04 19:56 | 50.27868 | 14.10645 | 6170 ft | 271 kts | 311° |
| 2026-05-04 19:56 | 50.29059 | 14.08271 | 5438 ft | 284 kts | 306° |
| 2026-05-04 19:56 | 50.30231 | 14.05839 | 5133 ft | 272 kts | 307° |
| 2026-05-04 19:56 | 50.31348 | 14.03532 | 5076 ft | 260 kts | 307° |
| 2026-05-04 19:57 | 50.32415 | 14.01320 | 5012 ft | 249 kts | 304° |
| 2026-05-04 19:57 | 50.33036 | 13.98898 | 4902 ft | 236 kts | 273° |
| 2026-05-04 19:57 | 50.32770 | 13.96501 | 4779 ft | 225 kts | 240° |
| 2026-05-04 19:57 | 50.31842 | 13.94517 | 4659 ft | 223 kts | 227° |
| 2026-05-04 19:58 | 50.30731 | 13.92891 | 4540 ft | 221 kts | 206° |
| 2026-05-04 19:58 | 50.29263 | 13.92362 | 4407 ft | 218 kts | 172° |
| 2026-05-04 19:58 | 50.27878 | 13.93212 | 4275 ft | 216 kts | 142° |
| 2026-05-04 19:58 | 50.26741 | 13.94741 | 4151 ft | 216 kts | 136° |
| 2026-05-04 19:59 | 50.25659 | 13.96361 | 4053 ft | 215 kts | 135° |
| 2026-05-04 19:59 | 50.24585 | 13.97990 | 3984 ft | 214 kts | 135° |
| 2026-05-04 19:59 | 50.23513 | 13.99622 | 3989 ft | 215 kts | 135° |
| 2026-05-04 19:59 | 50.22444 | 14.01254 | 3980 ft | 212 kts | 135° |
| 2026-05-04 20:00 | 50.21421 | 14.02814 | 3986 ft | 201 kts | 134° |
| 2026-05-04 20:00 | 50.20502 | 14.04439 | 3976 ft | 198 kts | 128° |
| 2026-05-04 20:00 | 50.19658 | 14.06126 | 3936 ft | 197 kts | 127° |
| 2026-05-04 20:00 | 50.18837 | 14.07824 | 3762 ft | 195 kts | 126° |
| 2026-05-04 20:01 | 50.18034 | 14.09497 | 3552 ft | 190 kts | 126° |
| 2026-05-04 20:01 | 50.17252 | 14.11125 | 3286 ft | 183 kts | 126° |
| 2026-05-04 20:01 | 50.16510 | 14.12670 | 3053 ft | 172 kts | 126° |
| 2026-05-04 20:01 | 50.15817 | 14.14112 | 2818 ft | 159 kts | 126° |
| 2026-05-04 20:02 | 50.15183 | 14.15431 | 2656 ft | 145 kts | 125° |
| 2026-05-04 20:02 | 50.14588 | 14.16667 | 2458 ft | 141 kts | 125° |
| 2026-05-04 20:02 | 50.14005 | 14.17882 | 2276 ft | 139 kts | 124° |
| 2026-05-04 20:02 | 50.13426 | 14.19091 | 2077 ft | 139 kts | 125° |
| 2026-05-04 20:03 | 50.12839 | 14.20292 | 1870 ft | 140 kts | 126° |
| 2026-05-04 20:03 | 50.12256 | 14.21500 | 1721 ft | 140 kts | 125° |
| 2026-05-04 20:03 | 50.11671 | 14.22718 | 1489 ft | 140 kts | 125° |
| 2026-05-04 20:03 | 50.11092 | 14.23923 | 1338 ft | 139 kts | 125° |
| 2026-05-04 20:04 | 50.10518 | 14.25121 | 1167 ft | 132 kts | 126° |
| 2026-05-04 20:04 | 50.10063 | 14.26065 | 1190 ft | 84 kts | 127° |
| 2026-05-04 20:04 | 50.09809 | 14.26588 | 1207 ft | 44 kts | 127° |
| 2026-05-04 20:04 | 50.09632 | 14.26957 | 1206 ft | 42 kts | 127° |
| 2026-05-04 20:05 | 50.09465 | 14.27303 | 1207 ft | 32 kts | 127° |
| 2026-05-04 20:05 | 50.09459 | 14.27473 | 1211 ft | 16 kts | 40° |
| 2026-05-04 20:05 | 50.09548 | 14.27578 | 1213 ft | 17 kts | 37° |
| 2026-05-04 20:05 | 50.09654 | 14.27616 | 1208 ft | 19 kts | 324° |
| 2026-05-04 20:06 | 50.09759 | 14.27455 | 1205 ft | 23 kts | 315° |
| 2026-05-04 20:06 | 50.09878 | 14.27264 | 1202 ft | 26 kts | 307° |
| 2026-05-04 20:06 | 50.09997 | 14.27022 | 1196 ft | 30 kts | 307° |
| 2026-05-04 20:06 | 50.10092 | 14.26821 | 1186 ft | 14 kts | 306° |
| 2026-05-04 20:07 | 50.10164 | 14.26670 | 1177 ft | 21 kts | 307° |
| 2026-05-04 20:07 | 50.10241 | 14.26532 | 1177 ft | 10 kts | 339° |
| 2026-05-04 20:07 | 50.10318 | 14.26590 | 1173 ft | 15 kts | 35° |
| 2026-05-04 20:07 | 50.10359 | 14.26655 | 1172 ft | 6 kts | 49° |
| 2026-05-04 20:08 | 50.10379 | 14.26680 | 1173 ft | 2 kts | 33° |
| 2026-05-04 20:08 | 50.10391 | 14.26691 | 1172 ft | 0 kts | 32° |